Time;durP1;ratioP1;P1;durP2;ratioP2;P2;SDS_P1;SDS_P2;PMS_P1;PMS_P2;Temp;Humidity;BMP_temperature;BMP_pressure;BME280_temperature;BME280_humidity;BME280_pressure;Samples;Min_cycle;Max_cycle;Signal;HPM_P1;HPM_P2
2022/07/14 00:01:02;;;;;;;;;;;;;;;19.01;50.49;100534.81;1759315;81;20173;-75
2022/07/14 00:03:28;;;;;;;;;;;;;;;18.90;50.70;100539.59;1768146;81;20160;-75
2022/07/14 00:05:54;;;;;;;;;;;;;;;18.84;50.91;100532.37;1761322;81;20137;-76
2022/07/14 00:08:20;;;;;;;;;;;;;;;18.78;51.07;100525.98;1768978;81;21162;-75
2022/07/14 00:10:46;;;;;;;;;;;;;;;18.75;51.19;100529.09;1759506;81;20182;-75
2022/07/14 00:13:12;;;;;;;;;;;;;;;18.71;51.38;100531.13;1769279;81;20195;-75
2022/07/14 00:15:38;;;;;;;;;;;;;;;18.67;51.49;100532.61;1757022;81;20213;-75
2022/07/14 00:18:04;;;;;;;;;;;;;;;18.61;51.61;100530.80;1763849;81;20262;-75
2022/07/14 00:20:30;;;;;;;;;;;;;;;18.56;51.75;100527.91;1759753;81;21158;-75
2022/07/14 00:22:56;;;;;;;;;;;;;;;18.52;51.86;100531.57;1761249;81;20472;-75
2022/07/14 00:25:26;;;;;;;;;;;;;;;18.46;51.96;100533.25;1756903;81;20566;-75
2022/07/14 00:27:52;;;;;;;;;;;;;;;18.42;52.08;100534.73;1769148;81;20277;-75
2022/07/14 00:30:18;;;;;;;;;;;;;;;18.38;52.21;100536.20;1770304;81;20497;-75
2022/07/14 00:32:44;;;;;;;;;;;;;;;18.35;52.32;100536.64;1770122;81;21844;-75
2022/07/14 00:35:10;;;;;;;;;;;;;;;18.32;52.42;100534.38;1770333;81;20187;-75
2022/07/14 00:37:35;;;;;;;;;;;;;;;18.29;52.50;100534.81;1770044;80;20282;-75
2022/07/14 00:40:04;;;;;;;;;;;;;;;18.23;52.62;100531.61;1770323;81;20548;-75
2022/07/14 00:42:43;;;;;;;;;;;;;;;18.17;52.75;100524.91;1770156;80;20464;-75
2022/07/14 00:45:10;;;;;;;;;;;;;;;18.12;52.89;100528.24;1771213;80;21138;-75
2022/07/14 00:47:36;;;;;;;;;;;;;;;18.07;53.04;100530.78;1772592;81;20177;-75
2022/07/14 00:50:02;;;;;;;;;;;;;;;18.03;53.17;100532.76;1773277;81;20274;-75
2022/07/14 00:52:28;;;;;;;;;;;;;;;18.00;53.29;100537.24;1773038;81;20366;-75
2022/07/14 00:54:54;;;;;;;;;;;;;;;17.93;53.43;100541.33;1773219;81;20452;-75
2022/07/14 00:57:21;;;;;;;;;;;;;;;17.86;53.54;100535.13;1773095;81;21170;-75
2022/07/14 00:59:47;;;;;;;;;;;;;;;17.80;53.71;100533.30;1772954;81;20137;-75
2022/07/14 01:02:13;;;;;;;;;;;;;;;17.74;53.84;100536.30;1773039;81;20495;-75
2022/07/14 01:04:39;;;;;;;;;;;;;;;17.70;53.98;100542.33;1773063;81;20173;-75
2022/07/14 01:07:05;;;;;;;;;;;;;;;17.66;54.11;100542.47;1773167;81;20696;-75
2022/07/14 01:09:31;;;;;;;;;;;;;;;17.62;54.23;100542.07;1773095;81;21822;-75
2022/07/14 01:11:57;;;;;;;;;;;;;;;17.58;54.34;100540.00;1772840;81;20230;-75
2022/07/14 01:14:23;;;;;;;;;;;;;;;17.51;54.51;100537.81;1773018;81;20165;-75
2022/07/14 01:16:55;;;;;;;;;;;;;;;17.44;54.66;100527.88;1760398;81;20167;-75
2022/07/14 01:19:22;;;;;;;;;;;;;;;17.41;54.82;100529.65;1768278;81;20153;-75
2022/07/14 01:21:51;;;;;;;;;;;;;;;17.37;54.93;100535.15;1773076;81;21199;-75
2022/07/14 01:24:17;;;;;;;;;;;;;;;17.34;55.06;100532.88;1768598;81;20508;-75
2022/07/14 01:26:43;;;;;;;;;;;;;;;17.31;55.19;100538.66;1773118;81;20175;-75
2022/07/14 01:29:09;;;;;;;;;;;;;;;17.27;55.35;100531.23;1772955;81;20246;-75
2022/07/14 01:31:34;;;;;;;;;;;;;;;17.22;55.47;100528.32;1773060;81;20223;-75
2022/07/14 01:34:01;;;;;;;;;;;;;;;17.19;55.60;100537.66;1772816;81;21896;-75
2022/07/14 01:36:26;;;;;;;;;;;;;;;17.17;55.72;100541.61;1773111;81;20172;-75
2022/07/14 01:38:52;;;;;;;;;;;;;;;17.13;55.85;100537.16;1772865;81;20262;-75
2022/07/14 01:41:20;;;;;;;;;;;;;;;17.12;55.97;100539.53;1772902;81;20590;-75
2022/07/14 01:43:46;;;;;;;;;;;;;;;17.11;56.10;100541.91;1773354;81;20140;-75
2022/07/14 01:46:12;;;;;;;;;;;;;;;17.11;56.24;100539.22;1772376;81;21141;-75
2022/07/14 01:48:38;;;;;;;;;;;;;;;17.13;56.33;100543.90;1772790;81;20171;-75
2022/07/14 01:51:04;;;;;;;;;;;;;;;17.16;56.41;100546.17;1772763;81;20199;-75
2022/07/14 01:53:30;;;;;;;;;;;;;;;17.17;56.52;100547.80;1772782;81;20172;-75
2022/07/14 01:55:57;;;;;;;;;;;;;;;17.19;56.59;100550.30;1772594;81;20199;-75
2022/07/14 01:58:22;;;;;;;;;;;;;;;17.21;56.68;100551.75;1772894;81;21057;-75
2022/07/14 02:01:39;;;;;;;;;;;;;;;17.24;56.75;100559.41;1772500;81;20183;-75
2022/07/14 02:03:16;;;;;;;;;;;;;;;17.28;56.82;100555.27;1768926;81;20144;-75
2022/07/14 02:05:46;;;;;;;;;;;;;;;17.31;56.94;100557.53;1772721;81;20179;-75
2022/07/14 02:08:12;;;;;;;;;;;;;;;17.32;57.06;100561.06;1772921;81;20160;-75
2022/07/14 02:13:24;;;;;;;;;;;;;;;17.33;57.26;100563.56;1752407;81;20432;-75
2022/07/14 02:15:50;;;;;;;;;;;;;;;17.38;57.39;100562.95;1772658;81;20480;-75
2022/07/14 02:18:16;;;;;;;;;;;;;;;17.41;57.47;100560.66;1772589;81;20147;-75
2022/07/14 02:20:42;;;;;;;;;;;;;;;17.44;57.56;100566.97;1772810;81;20246;-75
2022/07/14 02:23:07;;;;;;;;;;;;;;;17.45;57.68;100569.95;1772619;81;21323;-75
2022/07/14 02:25:33;;;;;;;;;;;;;;;17.48;57.81;100572.26;1762681;81;20191;-75
2022/07/14 02:27:59;;;;;;;;;;;;;;;17.57;57.91;100578.78;1772749;81;20715;-75
2022/07/14 02:30:25;;;;;;;;;;;;;;;17.65;58.02;100575.87;1772738;81;20238;-75
2022/07/14 02:32:51;;;;;;;;;;;;;;;17.72;58.13;100580.21;1772837;81;20143;-75
2022/07/14 02:35:18;;;;;;;;;;;;;;;17.80;58.22;100581.31;1772660;81;21328;-75
2022/07/14 02:37:44;;;;;;;;;;;;;;;17.87;58.31;100587.52;1772773;81;20476;-75
2022/07/14 02:40:11;;;;;;;;;;;;;;;17.89;58.39;100581.40;1772763;80;20187;-75
2022/07/14 02:42:37;;;;;;;;;;;;;;;17.91;58.47;100577.12;1744693;81;20192;-75
2022/07/14 02:45:03;;;;;;;;;;;;;;;17.90;58.57;100580.88;1763687;79;20222;-75
2022/07/14 02:47:29;;;;;;;;;;;;;;;17.90;58.70;100588.98;1772368;81;22201;-75
2022/07/14 02:49:55;;;;;;;;;;;;;;;17.89;58.82;100594.06;1773140;81;20175;-75
2022/07/14 02:52:21;;;;;;;;;;;;;;;17.90;58.96;100591.67;1772775;81;20179;-75
2022/07/14 02:54:47;;;;;;;;;;;;;;;17.90;59.08;100588.98;1772975;81;20270;-75
2022/07/14 02:57:13;;;;;;;;;;;;;;;17.90;59.17;100595.20;1772924;81;20152;-75
2022/07/14 02:59:42;;;;;;;;;;;;;;;17.92;59.28;100600.38;1772837;81;21144;-75
2022/07/14 03:02:08;;;;;;;;;;;;;;;17.94;59.35;100607.75;1772873;81;20449;-75
2022/07/14 03:04:34;;;;;;;;;;;;;;;17.94;59.46;100606.41;1772854;81;20153;-75
2022/07/14 03:07:00;;;;;;;;;;;;;;;17.98;59.55;100604.11;1773042;81;20343;-75
2022/07/14 03:09:26;;;;;;;;;;;;;;;17.98;59.62;100602.77;1772967;81;20830;-75
2022/07/14 03:11:52;;;;;;;;;;;;;;;17.98;59.71;100609.80;1772969;81;20713;-75
2022/07/14 03:14:18;;;;;;;;;;;;;;;18.01;59.76;100609.08;1772934;81;20235;-75
2022/07/14 03:16:43;;;;;;;;;;;;;;;18.00;59.88;100615.51;1772815;81;20278;-75
2022/07/14 03:19:09;;;;;;;;;;;;;;;18.01;59.95;100615.31;1772969;81;20207;-75
2022/07/14 03:21:35;;;;;;;;;;;;;;;18.02;60.02;100616.94;1772955;81;20719;-75
2022/07/14 03:24:01;;;;;;;;;;;;;;;18.03;60.08;100615.91;1767129;81;21190;-75
2022/07/14 03:26:29;;;;;;;;;;;;;;;18.04;60.15;100621.62;1766598;81;20268;-75
2022/07/14 03:28:55;;;;;;;;;;;;;;;18.03;60.21;100626.70;1772966;81;20433;-75
2022/07/14 03:31:21;;;;;;;;;;;;;;;18.05;60.26;100625.16;1772540;81;20141;-76
2022/07/14 03:33:47;;;;;;;;;;;;;;;18.07;60.32;100630.64;1773183;81;20183;-75
2022/07/14 03:36:13;;;;;;;;;;;;;;;18.10;60.36;100630.73;1772851;81;21847;-75
2022/07/14 03:38:38;;;;;;;;;;;;;;;18.13;60.41;100635.18;1773042;81;20179;-75
2022/07/14 03:41:05;;;;;;;;;;;;;;;18.18;60.47;100636.73;1773272;81;20192;-75
2022/07/14 03:43:30;;;;;;;;;;;;;;;18.22;60.50;100644.72;1773076;81;20441;-75
2022/07/14 03:45:56;;;;;;;;;;;;;;;18.32;60.55;100645.09;1772990;81;20251;-75
2022/07/14 03:48:22;;;;;;;;;;;;;;;18.36;60.64;100649.54;1773101;81;21883;-75
2022/07/14 03:50:48;;;;;;;;;;;;;;;18.38;60.75;100657.73;1772904;81;20219;-75
2022/07/14 03:53:14;;;;;;;;;;;;;;;18.41;60.78;100649.19;1773022;81;20166;-75
2022/07/14 03:55:42;;;;;;;;;;;;;;;18.48;60.82;100660.79;1772969;81;20731;-75
2022/07/14 03:58:08;;;;;;;;;;;;;;;18.48;60.76;100662.14;1773057;81;20176;-75
2022/07/14 04:00:34;;;;;;;;;;;;;;;18.47;60.80;100660.48;1773200;81;21049;-75
2022/07/14 04:03:00;;;;;;;;;;;;;;;18.46;60.83;100660.19;1773190;81;20270;-75
2022/07/14 04:05:26;;;;;;;;;;;;;;;18.44;60.88;100658.20;1773162;81;20179;-75
2022/07/14 04:07:52;;;;;;;;;;;;;;;18.44;60.89;100661.42;1773128;81;20531;-75
2022/07/14 04:10:17;;;;;;;;;;;;;;;18.42;60.95;100664.36;1773144;81;20242;-75
2022/07/14 04:12:44;;;;;;;;;;;;;;;18.44;61.00;100673.06;1772929;81;20815;-75
2022/07/14 04:15:10;;;;;;;;;;;;;;;18.45;61.03;100676.08;1773125;81;20137;-75
2022/07/14 04:17:35;;;;;;;;;;;;;;;18.45;61.08;100667.14;1773092;81;20149;-75
2022/07/14 04:20:01;;;;;;;;;;;;;;;18.48;61.16;100672.11;1773074;81;20172;-75
2022/07/14 04:22:28;;;;;;;;;;;;;;;18.53;61.20;100675.05;1772864;81;20188;-75
2022/07/14 04:24:54;;;;;;;;;;;;;;;18.63;61.23;100674.06;1761013;81;21144;-76
2022/07/14 04:27:20;;;;;;;;;;;;;;;18.77;61.28;100672.94;1772911;81;20250;-75
2022/07/14 04:29:46;;;;;;;;;;;;;;;18.98;61.25;100674.47;1773015;81;20226;-75
2022/07/14 04:32:12;;;;;;;;;;;;;;;18.95;61.09;100678.97;1772976;81;20145;-75
2022/07/14 04:34:39;;;;;;;;;;;;;;;18.89;61.08;100675.24;1773071;81;20160;-75
2022/07/14 04:37:05;;;;;;;;;;;;;;;18.84;61.07;100671.55;1772843;81;21192;-76
2022/07/14 04:39:31;;;;;;;;;;;;;;;18.79;61.10;100675.41;1772987;81;20211;-75
2022/07/14 04:41:56;;;;;;;;;;;;;;;18.76;61.11;100682.08;1772992;81;20173;-76
2022/07/14 04:44:22;;;;;;;;;;;;;;;18.78;61.09;100678.66;1773191;81;20576;-75
2022/07/14 04:46:48;;;;;;;;;;;;;;;18.79;61.05;100681.64;1772773;81;20179;-76
2022/07/14 04:52:04;;;;;;;;;;;;;;;18.85;60.95;100682.67;1773227;81;20485;-75
2022/07/14 04:54:33;;;;;;;;;;;;;;;18.91;60.82;100681.80;1772981;81;20140;-75
2022/07/14 04:56:59;;;;;;;;;;;;;;;19.00;60.74;100682.38;1772081;81;20169;-75
2022/07/14 04:59:24;;;;;;;;;;;;;;;19.09;60.59;100684.59;1773188;81;20202;-76
2022/07/14 05:01:50;;;;;;;;;;;;;;;19.15;60.46;100679.66;1772842;81;21144;-76
2022/07/14 05:04:16;;;;;;;;;;;;;;;19.18;60.34;100687.33;1772839;81;20211;-75
2022/07/14 05:06:45;;;;;;;;;;;;;;;19.17;60.23;100676.23;1772772;81;20267;-76
2022/07/14 05:09:10;;;;;;;;;;;;;;;19.16;60.13;100690.78;1772733;81;20145;-76
2022/07/14 05:11:35;;;;;;;;;;;;;;;19.15;60.07;100686.42;1773215;81;20211;-75
2022/07/14 05:14:01;;;;;;;;;;;;;;;19.27;60.02;100678.44;1772912;81;21193;-76
2022/07/14 05:16:27;;;;;;;;;;;;;;;19.46;59.92;100682.08;1771155;81;20191;-75
2022/07/14 05:18:53;;;;;;;;;;;;;;;19.77;59.75;100676.59;1773053;81;20219;-76
2022/07/14 05:21:19;;;;;;;;;;;;;;;20.01;59.51;100689.24;1773066;81;20207;-76
2022/07/14 05:23:45;;;;;;;;;;;;;;;20.34;59.25;100688.89;1772947;81;20176;-76
2022/07/14 05:26:14;;;;;;;;;;;;;;;20.81;58.94;100695.38;1772983;81;21179;-76
2022/07/14 05:28:40;;;;;;;;;;;;;;;21.06;58.45;100682.52;1772964;81;20152;-76
2022/07/14 05:31:06;;;;;;;;;;;;;;;20.97;57.92;100683.08;1773225;81;20238;-76
2022/07/14 05:33:32;;;;;;;;;;;;;;;20.78;57.65;100690.42;1773041;81;20157;-76
2022/07/14 05:35:58;;;;;;;;;;;;;;;20.85;57.44;100685.73;1773049;81;20140;-76
2022/07/14 05:38:24;;;;;;;;;;;;;;;21.15;57.24;100689.80;1773070;81;21157;-76
2022/07/14 05:40:53;;;;;;;;;;;;;;;21.43;56.91;100695.97;1772971;81;20210;-76
2022/07/14 05:43:19;;;;;;;;;;;;;;;21.77;56.59;100697.87;1772702;81;20496;-76
2022/07/14 05:45:45;;;;;;;;;;;;;;;22.08;56.10;100696.19;1770120;80;20251;-76
2022/07/14 05:48:11;;;;;;;;;;;;;;;22.09;55.73;100688.34;1765300;81;20192;-76
2022/07/14 05:50:37;;;;;;;;;;;;;;;21.81;55.30;100690.92;1773068;81;21845;-76
2022/07/14 05:53:03;;;;;;;;;;;;;;;21.45;54.93;100698.73;1772772;81;20191;-76
2022/07/14 05:55:28;;;;;;;;;;;;;;;21.17;54.76;100695.31;1773356;81;20179;-76
2022/07/14 05:57:54;;;;;;;;;;;;;;;21.00;54.62;100694.30;1772979;81;20195;-76
2022/07/14 06:00:20;;;;;;;;;;;;;;;21.03;54.59;100698.41;1773071;81;20179;-77
2022/07/14 06:02:46;;;;;;;;;;;;;;;21.12;54.41;100704.66;1769965;81;21665;-76
2022/07/14 06:05:12;;;;;;;;;;;;;;;21.28;54.23;100705.37;1765026;81;20865;-76
2022/07/14 06:07:38;;;;;;;;;;;;;;;21.36;53.99;100705.02;1772162;81;20266;-76
2022/07/14 06:10:05;;;;;;;;;;;;;;;21.30;53.80;100710.02;1768138;81;20175;-76
2022/07/14 06:12:37;;;;;;;;;;;;;;;21.25;53.70;100705.02;1759754;81;20128;-76
2022/07/14 06:15:02;;;;;;;;;;;;;;;21.15;53.55;100701.48;1772990;81;21754;-76
2022/07/14 06:17:28;;;;;;;;;;;;;;;21.02;53.53;100702.17;1773053;81;20469;-76
2022/07/14 06:19:54;;;;;;;;;;;;;;;20.98;53.50;100709.95;1771106;81;20164;-76
2022/07/14 06:22:20;;;;;;;;;;;;;;;20.90;53.45;100710.27;1764827;81;20176;-77
2022/07/14 06:24:48;;;;;;;;;;;;;;;20.88;53.36;100712.39;1767857;81;20879;-77
2022/07/14 06:27:14;;;;;;;;;;;;;;;20.90;53.25;100711.61;1753611;80;21174;-76
2022/07/14 06:29:40;;;;;;;;;;;;;;;20.91;53.06;100710.56;1769740;81;20145;-77
2022/07/14 06:32:06;;;;;;;;;;;;;;;21.03;52.94;100712.81;1769616;81;20290;-76
2022/07/14 06:34:32;;;;;;;;;;;;;;;21.04;52.59;100715.80;1770310;81;20180;-76
2022/07/14 06:36:59;;;;;;;;;;;;;;;21.10;52.46;100713.58;1769662;81;20678;-76
2022/07/14 06:39:25;;;;;;;;;;;;;;;21.06;52.27;100715.05;1744526;81;21071;-77
2022/07/14 06:41:51;;;;;;;;;;;;;;;20.97;52.11;100713.70;1769070;81;20191;-77
2022/07/14 06:44:17;;;;;;;;;;;;;;;20.94;52.04;100708.75;1754660;81;20812;-76
2022/07/14 06:46:43;;;;;;;;;;;;;;;20.87;52.02;100710.72;1740373;81;20461;-76
2022/07/14 06:49:09;;;;;;;;;;;;;;;20.90;52.02;100703.48;1728448;82;20241;-76
2022/07/14 06:51:35;;;;;;;;;;;;;;;20.97;51.98;100708.28;1728573;83;21848;-77
2022/07/14 06:54:00;;;;;;;;;;;;;;;21.05;51.97;100708.48;1728296;83;20268;-77
2022/07/14 06:56:26;;;;;;;;;;;;;;;21.10;51.91;100700.02;1728571;82;20248;-77
2022/07/14 06:58:52;;;;;;;;;;;;;;;21.13;51.94;100696.00;1728499;82;20745;-77
2022/07/14 07:01:18;;;;;;;;;;;;;;;21.12;51.92;100691.09;1719999;82;20184;-76
2022/07/14 07:03:44;;;;;;;;;;;;;;;21.22;51.95;100686.45;1716650;82;21726;-77
2022/07/14 07:08:54;;;;;;;;;;;;;;;21.69;51.85;100679.22;1713251;83;20151;-73
2022/07/14 07:11:20;;;;;;;;;;;;;;;21.86;51.72;100678.80;1725432;83;20375;-73
2022/07/14 07:13:46;;;;;;;;;;;;;;;22.02;51.67;100678.13;1710815;83;20265;-73
2022/07/14 07:16:12;;;;;;;;;;;;;;;22.09;51.60;100686.98;1720524;83;21036;-73
2022/07/14 07:18:38;;;;;;;;;;;;;;;22.02;51.44;100687.63;1723977;83;20237;-73
2022/07/14 07:21:04;;;;;;;;;;;;;;;21.85;51.37;100698.86;1723665;83;20210;-73
2022/07/14 07:23:30;;;;;;;;;;;;;;;21.72;51.39;100691.79;1726030;83;20180;-72
2022/07/14 07:25:56;;;;;;;;;;;;;;;21.56;51.43;100697.09;1726830;83;20201;-73
2022/07/14 07:28:22;;;;;;;;;;;;;;;21.40;51.46;100691.81;1723916;83;21107;-73
2022/07/14 07:30:48;;;;;;;;;;;;;;;21.32;51.58;100694.33;1710415;83;20236;-73
2022/07/14 07:33:14;;;;;;;;;;;;;;;21.18;51.63;100694.23;1752142;81;20183;-73
2022/07/14 07:35:42;;;;;;;;;;;;;;;21.04;51.69;100694.09;1755653;81;20210;-73
2022/07/14 07:38:07;;;;;;;;;;;;;;;20.97;51.79;100693.37;1702436;83;20465;-72
2022/07/14 07:40:33;;;;;;;;;;;;;;;20.91;51.87;100695.66;1741863;81;21168;-73
2022/07/14 07:42:59;;;;;;;;;;;;;;;20.83;51.85;100701.39;1756211;81;20175;-72
2022/07/14 07:45:25;;;;;;;;;;;;;;;20.74;52.00;100706.32;1752210;80;20266;-76
2022/07/14 07:47:51;;;;;;;;;;;;;;;20.66;52.08;100705.27;1759026;81;20534;-77
2022/07/14 07:50:17;;;;;;;;;;;;;;;20.68;52.16;100700.98;1754114;81;20157;-76
2022/07/14 07:52:43;;;;;;;;;;;;;;;20.66;52.18;100694.95;1764101;81;20947;-76
2022/07/14 07:55:09;;;;;;;;;;;;;;;20.68;52.19;100690.15;1763930;81;20182;-77
2022/07/14 07:57:36;;;;;;;;;;;;;;;20.80;52.19;100697.27;1752874;81;20161;-77
2022/07/14 08:00:03;;;;;;;;;;;;;;;20.95;52.22;100698.21;1747813;81;20495;-76
2022/07/14 08:02:29;;;;;;;;;;;;;;;21.14;52.20;100695.78;1742406;81;20155;-76
2022/07/14 08:04:55;;;;;;;;;;;;;;;21.29;52.09;100697.51;1740609;81;21100;-77
2022/07/14 08:07:21;;;;;;;;;;;;;;;21.39;51.94;100699.12;1740491;81;20197;-77
2022/07/14 08:09:47;;;;;;;;;;;;;;;21.67;51.96;100694.92;1747632;81;20324;-76
2022/07/14 08:12:13;;;;;;;;;;;;;;;22.07;51.78;100690.45;1745270;81;20198;-76
2022/07/14 08:14:48;;;;;;;;;;;;;;;22.63;51.64;100687.00;1747143;81;20363;-77
2022/07/14 08:17:14;;;;;;;;;;;;;;;23.10;51.41;100687.66;1751093;81;21412;-77
2022/07/14 08:19:40;;;;;;;;;;;;;;;23.17;51.02;100682.89;1748256;81;20495;-77
2022/07/14 08:22:06;;;;;;;;;;;;;;;23.13;50.79;100679.54;1740645;81;20191;-77
2022/07/14 08:24:32;;;;;;;;;;;;;;;23.26;50.65;100682.77;1747148;81;20287;-76
2022/07/14 08:26:57;;;;;;;;;;;;;;;23.21;50.38;100687.31;1741328;81;20262;-77
2022/07/14 08:29:23;;;;;;;;;;;;;;;23.32;50.28;100687.25;1741948;81;21594;-77
2022/07/14 08:31:49;;;;;;;;;;;;;;;23.42;50.03;100691.23;1738676;81;20193;-77
2022/07/14 08:34:15;;;;;;;;;;;;;;;23.51;49.89;100689.20;1742013;80;20196;-77
2022/07/14 08:36:41;;;;;;;;;;;;;;;23.57;49.73;100688.23;1744756;80;20291;-77
2022/07/14 08:39:08;;;;;;;;;;;;;;;23.56;49.61;100688.47;1745605;80;20185;-77
2022/07/14 08:41:36;;;;;;;;;;;;;;;23.54;49.41;100687.91;1741152;81;22688;-77
2022/07/14 08:44:01;;;;;;;;;;;;;;;23.22;49.17;100698.50;1757328;81;20618;-76
2022/07/14 08:46:27;;;;;;;;;;;;;;;22.93;49.13;100685.45;1761227;81;20219;-77
2022/07/14 08:48:53;;;;;;;;;;;;;;;22.86;49.16;100684.77;1761295;81;20889;-77
2022/07/14 08:51:20;;;;;;;;;;;;;;;22.67;49.13;100685.49;1750704;81;20178;-77
2022/07/14 08:53:46;;;;;;;;;;;;;;;22.57;49.16;100675.75;1757924;81;21390;-77
2022/07/14 08:56:12;;;;;;;;;;;;;;;22.54;49.13;100678.13;1750484;81;20217;-77
2022/07/14 08:58:41;;;;;;;;;;;;;;;22.64;49.22;100674.23;1751862;81;20186;-77
2022/07/14 09:01:07;;;;;;;;;;;;;;;22.69;49.11;100673.02;1744215;81;21291;-77
2022/07/14 09:03:33;;;;;;;;;;;;;;;22.63;49.10;100672.58;1753354;81;20162;-77
2022/07/14 09:05:59;;;;;;;;;;;;;;;22.40;49.00;100671.61;1744810;82;21257;-77
2022/07/14 09:08:25;;;;;;;;;;;;;;;22.28;49.11;100672.16;1763285;81;20160;-77
2022/07/14 09:10:51;;;;;;;;;;;;;;;22.21;49.15;100671.47;1766404;81;20191;-77
2022/07/14 09:13:21;;;;;;;;;;;;;;;22.20;49.17;100667.09;1769615;81;20227;-77
2022/07/14 09:15:47;;;;;;;;;;;;;;;22.26;49.23;100670.23;1766639;81;20164;-77
2022/07/14 09:18:20;;;;;;;;;;;;;;;22.38;49.27;100671.00;1741574;81;20908;-77
2022/07/14 09:20:46;;;;;;;;;;;;;;;22.63;49.31;100664.42;1748283;82;20457;-77
2022/07/14 09:23:12;;;;;;;;;;;;;;;23.08;49.26;100657.14;1753702;81;20185;-77
2022/07/14 09:25:38;;;;;;;;;;;;;;;23.43;49.07;100661.58;1751821;81;20227;-77
2022/07/14 09:28:05;;;;;;;;;;;;;;;23.46;48.68;100655.64;1741005;81;20097;-77
2022/07/14 09:30:31;;;;;;;;;;;;;;;23.43;48.55;100661.05;1767618;81;22288;-77
2022/07/14 09:33:04;;;;;;;;;;;;;;;23.48;48.47;100661.65;1770145;81;20199;-77
2022/07/14 09:35:36;;;;;;;;;;;;;;;23.48;48.36;100665.73;1770206;81;20432;-77
2022/07/14 09:38:22;;;;;;;;;;;;;;;23.51;48.27;100649.72;1769085;81;20950;-77
2022/07/14 09:40:49;;;;;;;;;;;;;;;23.63;48.15;100648.28;1707189;83;20449;-77
2022/07/14 09:43:15;;;;;;;;;;;;;;;23.69;47.59;100644.55;1756336;81;21655;-76
2022/07/14 09:45:43;;;;;;;;;;;;;;;23.64;47.33;100644.48;1768557;81;20807;-77
2022/07/14 09:48:11;;;;;;;;;;;;;;;23.88;47.42;100632.30;1763190;81;20152;-77
2022/07/14 09:50:56;;;;;;;;;;;;;;;24.15;47.16;100627.78;1764089;81;20435;-77
2022/07/14 09:53:36;;;;;;;;;;;;;;;24.38;46.93;100625.89;1763362;81;20148;-77
2022/07/14 09:56:04;;;;;;;;;;;;;;;24.49;46.30;100616.75;1766301;81;22662;-77
2022/07/14 09:58:37;;;;;;;;;;;;;;;24.48;45.73;100620.55;1763295;81;20164;-77
2022/07/14 10:01:05;;;;;;;;;;;;;;;24.61;45.49;100614.68;1766358;80;20420;-77
2022/07/14 10:03:33;;;;;;;;;;;;;;;24.55;44.63;100600.19;1766558;81;20275;-77
2022/07/14 10:05:59;;;;;;;;;;;;;;;24.58;44.22;100602.92;1765656;81;20176;-77
2022/07/14 10:08:29;;;;;;;;;;;;;;;24.70;44.01;100599.52;1764850;81;21785;-77
2022/07/14 10:10:56;;;;;;;;;;;;;;;24.62;43.46;100591.79;1761937;81;20612;-77
2022/07/14 10:13:23;;;;;;;;;;;;;;;24.56;43.38;100603.17;1752317;81;20160;-77
2022/07/14 10:15:49;;;;;;;;;;;;;;;24.53;42.92;100587.86;1765427;81;20861;-77
2022/07/14 10:18:15;;;;;;;;;;;;;;;24.50;42.76;100599.28;1764282;81;20157;-77
2022/07/14 10:20:41;;;;;;;;;;;;;;;24.45;42.71;100595.98;1767089;81;21658;-77
2022/07/14 10:23:07;;;;;;;;;;;;;;;24.41;42.71;100591.30;1746341;81;20248;-79
2022/07/14 10:25:33;;;;;;;;;;;;;;;24.38;42.67;100594.80;1761050;80;20152;-78
2022/07/14 10:27:59;;;;;;;;;;;;;;;24.49;42.66;100594.94;1765502;81;20398;-79
2022/07/14 10:30:35;;;;;;;;;;;;;;;24.44;42.42;100594.87;1767075;81;20287;-79
2022/07/14 10:33:13;;;;;;;;;;;;;;;24.41;42.34;100591.30;1754118;81;21228;-77
2022/07/14 10:35:55;;;;;;;;;;;;;;;24.38;42.30;100582.27;1761596;81;20452;-77
2022/07/14 10:38:41;;;;;;;;;;;;;;;24.44;42.14;100590.77;1765005;80;20168;-77
2022/07/14 10:41:27;;;;;;;;;;;;;;;24.50;41.97;100583.75;1746902;81;20447;-78
2022/07/14 10:44:11;;;;;;;;;;;;;;;24.71;41.87;100577.95;1765812;81;20164;-78
2022/07/14 10:46:42;;;;;;;;;;;;;;;24.80;41.48;100583.24;1766015;81;21643;-77
2022/07/14 10:49:10;;;;;;;;;;;;;;;24.72;41.23;100583.70;1765057;80;20168;-78
2022/07/14 10:51:45;;;;;;;;;;;;;;;24.83;41.40;100580.85;1755163;81;20171;-78
2022/07/14 10:54:25;;;;;;;;;;;;;;;24.95;41.41;100579.30;1760261;81;21142;-78
2022/07/14 10:57:12;;;;;;;;;;;;;;;25.05;41.54;100575.28;1766221;81;20100;-78
2022/07/14 10:59:39;;;;;;;;;;;;;;;25.09;41.47;100574.22;1744994;81;21604;-77
2022/07/14 11:02:14;;;;;;;;;;;;;;;25.17;41.39;100571.84;1759540;80;20169;-78
2022/07/14 11:05:04;;;;;;;;;;;;;;;25.24;41.32;100567.52;1737447;81;20168;-78
2022/07/14 11:07:39;;;;;;;;;;;;;;;25.39;40.82;100551.25;1756681;81;20503;-77
2022/07/14 11:10:13;;;;;;;;;;;;;;;25.45;40.30;100546.63;1760872;81;20164;-77
2022/07/14 11:13:01;;;;;;;;;;;;;;;25.52;40.18;100554.08;1757760;81;21789;-78
2022/07/14 11:15:45;;;;;;;;;;;;;;;25.54;40.19;100551.92;1740726;81;20134;-77
2022/07/14 11:18:27;;;;;;;;;;;;;;;25.56;40.12;100549.19;1727520;83;20401;-78
2022/07/14 11:20:58;;;;;;;;;;;;;;;25.40;39.69;100550.70;1725614;83;20491;-77
2022/07/14 11:23:26;;;;;;;;;;;;;;;25.46;39.57;100557.84;1725870;83;20261;-78
2022/07/14 11:25:53;;;;;;;;;;;;;;;25.58;39.51;100547.01;1727097;83;21866;-78
2022/07/14 11:28:43;;;;;;;;;;;;;;;25.68;39.26;100533.97;1725982;83;20127;-79
2022/07/14 11:31:15;;;;;;;;;;;;;;;25.76;38.99;100543.00;1727225;83;20411;-80
2022/07/14 11:36:27;;;;;;;;;;;;;;;25.77;37.86;100536.45;1718212;83;20479;-80
2022/07/14 11:39:20;;;;;;;;;;;;;;;25.66;37.64;100528.75;1723800;83;21735;-80
2022/07/14 11:42:02;;;;;;;;;;;;;;;25.60;37.69;100521.63;1727127;83;20953;-80
2022/07/14 11:44:40;;;;;;;;;;;;;;;25.73;37.52;100528.51;1708135;83;20156;-80
2022/07/14 11:47:07;;;;;;;;;;;;;;;25.63;37.05;100529.83;1759525;81;20515;-79
2022/07/14 11:49:34;;;;;;;;;;;;;;;25.58;36.67;100532.55;1767996;80;20139;-80
2022/07/14 11:52:01;;;;;;;;;;;;;;;25.57;36.70;100522.70;1768147;80;21874;-80
2022/07/14 11:54:27;;;;;;;;;;;;;;;25.72;36.66;100528.25;1759374;81;20721;-80
2022/07/14 11:57:03;;;;;;;;;;;;;;;25.73;36.39;100517.03;1759270;81;20290;-79
2022/07/14 11:59:30;;;;;;;;;;;;;;;25.37;36.38;100513.01;1751735;81;21008;-79
2022/07/14 12:02:07;;;;;;;;;;;;;;;25.08;36.63;100512.01;1760737;81;20176;-79
2022/07/14 12:04:33;;;;;;;;;;;;;;;24.97;36.80;100519.84;1749142;82;21800;-79
2022/07/14 12:06:58;;;;;;;;;;;;;;;25.03;36.87;100511.13;1753978;81;20244;-79
2022/07/14 12:09:30;;;;;;;;;;;;;;;25.19;36.84;100497.31;1753910;82;20220;-79
2022/07/14 12:11:56;;;;;;;;;;;;;;;25.22;36.72;100502.28;1754048;82;20353;-79
2022/07/14 12:14:23;;;;;;;;;;;;;;;25.32;36.70;100504.23;1754471;82;20158;-79
2022/07/14 12:16:49;;;;;;;;;;;;;;;25.39;36.63;100502.63;1769200;81;21844;-79
2022/07/14 12:19:17;;;;;;;;;;;;;;;25.46;36.67;100501.85;1748449;81;20729;-78
2022/07/14 12:21:43;;;;;;;;;;;;;;;25.61;36.80;100504.70;1721248;81;20184;-79
2022/07/14 12:24:12;;;;;;;;;;;;;;;25.79;36.67;100500.93;1761875;81;20476;-79
2022/07/14 12:26:37;;;;;;;;;;;;;;;25.67;36.45;100494.06;1766206;81;20232;-78
2022/07/14 12:29:04;;;;;;;;;;;;;;;25.42;36.32;100504.83;1772700;81;21764;-79
2022/07/14 12:31:31;;;;;;;;;;;;;;;25.29;36.46;100496.04;1772874;81;20156;-79
2022/07/14 12:33:58;;;;;;;;;;;;;;;25.28;36.47;100493.02;1736966;82;20160;-79
2022/07/14 12:36:25;;;;;;;;;;;;;;;25.34;36.67;100489.22;1762816;81;20431;-79
2022/07/14 12:38:51;;;;;;;;;;;;;;;25.56;36.62;100491.00;1770404;81;20193;-73
2022/07/14 12:41:24;;;;;;;;;;;;;;;25.70;36.46;100487.52;1743881;81;21459;-73
2022/07/14 12:43:51;;;;;;;;;;;;;;;25.88;36.41;100482.13;1770971;81;20164;-73
2022/07/14 12:46:18;;;;;;;;;;;;;;;25.98;36.30;100484.88;1767141;81;20201;-74
2022/07/14 12:48:54;;;;;;;;;;;;;;;25.99;36.10;100482.43;1769188;81;20367;-74